Time;durP1;ratioP1;P1;durP2;ratioP2;P2;SDS_P1;SDS_P2;PMS_P1;PMS_P2;Temp;Humidity;BMP_temperature;BMP_pressure;BME280_temperature;BME280_humidity;BME280_pressure;Samples;Min_cycle;Max_cycle;Signal;HPM_P1;HPM_P2
2022/12/09 00:01:13;;;;;;;8.27;6.55;;;;;;;2.48;75.51;99422.56;5031742;28;20409;-76
2022/12/09 00:03:39;;;;;;;9.27;6.40;;;;;;;2.46;75.43;99427.34;5017342;28;20451;-76
2022/12/09 00:06:07;;;;;;;10.00;6.60;;;;;;;2.44;75.52;99427.53;5037399;28;20904;-76
2022/12/09 00:08:32;;;;;;;8.27;6.25;;;;;;;2.42;75.58;99424.28;5038247;28;20399;-76
2022/12/09 00:10:57;;;;;;;9.55;6.35;;;;;;;2.42;75.41;99432.31;5031074;28;20405;-75
2022/12/09 00:13:23;;;;;;;11.43;6.67;;;;;;;2.40;75.54;99421.00;5031817;28;21135;-76
2022/12/09 00:15:48;;;;;;;9.50;6.67;;;;;;;2.40;75.27;99414.84;5041754;28;20412;-76
2022/12/09 00:18:13;;;;;;;9.83;6.37;;;;;;;2.39;75.27;99415.88;5082467;28;20903;-76
2022/12/09 00:20:38;;;;;;;14.33;7.53;;;;;;;2.38;75.09;99416.91;5053402;28;20439;-75
2022/12/09 00:23:04;;;;;;;12.83;6.70;;;;;;;2.35;74.99;99409.31;5054023;28;20455;-76
2022/12/09 00:25:30;;;;;;;11.60;7.27;;;;;;;2.37;75.23;99424.09;5054110;28;20500;-75
2022/12/09 00:27:56;;;;;;;10.27;6.77;;;;;;;2.39;75.08;99416.69;5039195;28;20782;-76
2022/12/09 00:30:21;;;;;;;13.90;6.82;;;;;;;2.40;75.18;99409.50;5028063;28;20416;-76
2022/12/09 00:32:46;;;;;;;11.97;6.23;;;;;;;2.38;74.85;99404.34;5053756;28;20413;-76
2022/12/09 00:35:12;;;;;;;13.20;7.03;;;;;;;2.34;75.24;99400.47;5042368;28;20783;-76
2022/12/09 00:37:37;;;;;;;12.02;7.78;;;;;;;2.31;75.10;99400.06;5035634;28;20397;-76
2022/12/09 00:40:02;;;;;;;15.90;9.57;;;;;;;2.34;75.28;99402.34;5033398;28;20462;-76
2022/12/09 00:42:28;;;;;;;19.17;9.87;;;;;;;2.36;75.11;99400.25;5038425;28;20829;-76
2022/12/09 00:44:53;;;;;;;14.23;8.67;;;;;;;2.37;74.92;99404.59;5052062;28;20417;-76
2022/12/09 00:47:18;;;;;;;17.85;9.73;;;;;;;2.36;74.97;99411.78;5041874;28;20423;-76
2022/12/09 00:49:44;;;;;;;15.57;9.07;;;;;;;2.34;74.91;99402.34;5024083;28;20436;-76
2022/12/09 00:52:09;;;;;;;17.77;8.93;;;;;;;2.32;75.04;99402.56;5039306;28;20880;-76
2022/12/09 00:54:34;;;;;;;16.17;8.80;;;;;;;2.30;74.73;99401.97;5043210;28;20492;-76
2022/12/09 00:57:00;;;;;;;13.18;8.00;;;;;;;2.28;74.74;99403.19;5047486;28;20401;-76
2022/12/09 00:59:25;;;;;;;16.10;9.23;;;;;;;2.27;74.95;99401.56;5046639;28;20473;-76
2022/12/09 01:01:50;;;;;;;15.67;9.43;;;;;;;2.22;74.82;99404.88;5038807;28;20409;-76
2022/12/09 01:04:16;;;;;;;17.37;10.33;;;;;;;2.22;74.99;99401.38;5053258;28;20385;-75
2022/12/09 01:06:41;;;;;;;15.40;9.93;;;;;;;2.19;74.51;99399.97;5038473;28;20482;-76
2022/12/09 01:09:07;;;;;;;15.02;9.77;;;;;;;2.15;74.39;99398.75;5040578;28;20393;-76
2022/12/09 01:11:32;;;;;;;15.60;9.48;;;;;;;2.15;74.91;99397.94;5067477;28;20530;-76
2022/12/09 01:14:00;;;;;;;16.20;9.80;;;;;;;2.11;74.90;99399.44;5051771;28;20398;-75
2022/12/09 01:16:28;;;;;;;14.30;8.82;;;;;;;2.09;75.15;99405.81;5043217;28;20769;-76
2022/12/09 01:18:56;;;;;;;14.95;8.52;;;;;;;2.09;75.05;99399.63;5048015;28;20481;-76
2022/12/09 01:21:23;;;;;;;11.65;7.57;;;;;;;2.04;75.16;99397.59;5030212;28;21002;-76
2022/12/09 01:23:48;;;;;;;12.60;8.05;;;;;;;1.96;74.94;99411.22;5044083;28;20409;-76
2022/12/09 01:26:14;;;;;;;11.27;6.47;;;;;;;1.77;75.44;99404.16;5045544;28;20407;-76
2022/12/09 01:28:39;;;;;;;9.68;6.38;;;;;;;1.83;75.18;99405.13;5025929;28;20403;-76
2022/12/09 01:31:10;;;;;;;6.80;5.87;;;;;;;1.85;75.06;99405.72;5024327;28;20409;-76
2022/12/09 01:33:35;;;;;;;9.82;6.20;;;;;;;1.80;75.30;99402.91;5046112;28;20811;-76
2022/12/09 01:36:04;;;;;;;10.93;5.97;;;;;;;1.82;75.30;99393.63;5040127;28;20406;-76
2022/12/09 01:38:29;;;;;;;10.93;5.93;;;;;;;1.80;75.07;99403.72;5052396;28;20397;-76
2022/12/09 01:40:54;;;;;;;8.90;6.03;;;;;;;1.81;75.16;99399.19;5029172;28;20461;-76
2022/12/09 01:43:20;;;;;;;7.67;5.93;;;;;;;1.80;74.96;99397.56;5045110;28;20543;-76
2022/12/09 01:45:45;;;;;;;10.20;5.90;;;;;;;1.81;74.83;99393.84;5061619;28;20447;-76
2022/12/09 01:48:13;;;;;;;7.30;5.20;;;;;;;1.80;75.12;99394.88;5037878;28;20456;-76
2022/12/09 01:50:55;;;;;;;9.23;6.03;;;;;;;1.79;74.92;99388.72;5023311;28;20413;-76
2022/12/09 01:53:25;;;;;;;8.25;5.70;;;;;;;1.78;74.78;99387.06;5024023;28;20898;-76
2022/12/09 01:55:53;;;;;;;7.82;6.03;;;;;;;1.81;74.87;99377.84;5052469;28;20745;-76
2022/12/09 01:58:19;;;;;;;6.57;5.38;;;;;;;1.80;74.75;99371.66;5039932;28;20449;-76
2022/12/09 02:00:45;;;;;;;7.65;5.57;;;;;;;1.80;74.69;99366.31;5033425;28;20417;-76
2022/12/09 02:03:11;;;;;;;8.10;5.57;;;;;;;1.77;74.78;99365.94;5036331;28;20411;-76
2022/12/09 02:05:37;;;;;;;6.97;5.22;;;;;;;1.74;74.60;99363.69;5050685;28;20753;-75
2022/12/09 02:08:06;;;;;;;8.15;6.00;;;;;;;1.73;74.41;99364.72;5052178;28;20394;-76
2022/12/09 02:10:35;;;;;;;6.97;5.60;;;;;;;1.72;74.43;99350.53;5022258;28;20440;-75
2022/12/09 02:13:10;;;;;;;8.77;6.45;;;;;;;1.68;74.28;99338.63;5025048;28;20416;-76
2022/12/09 02:15:47;;;;;;;15.57;8.53;;;;;;;1.72;74.83;99336.34;5031227;28;20878;-75
2022/12/09 02:18:33;;;;;;;9.70;7.13;;;;;;;1.74;74.87;99343.16;5011416;28;20400;-76
2022/12/09 02:21:08;;;;;;;10.73;6.43;;;;;;;1.74;74.58;99347.66;5031754;28;20441;-75
2022/12/09 02:23:40;;;;;;;9.63;6.67;;;;;;;1.72;74.54;99345.19;5044872;28;20848;-75
2022/12/09 02:26:13;;;;;;;11.65;6.25;;;;;;;1.70;74.41;99341.09;5032140;28;20415;-75
2022/12/09 02:28:57;;;;;;;9.32;5.93;;;;;;;1.64;74.74;99336.63;5050358;28;20424;-76
2022/12/09 02:31:31;;;;;;;10.98;6.35;;;;;;;1.64;74.78;99339.31;5039050;28;20402;-75
2022/12/09 02:34:11;;;;;;;8.07;6.03;;;;;;;1.64;74.45;99331.28;5031509;28;20408;-76
2022/12/09 02:36:51;;;;;;;12.50;7.38;;;;;;;1.58;74.59;99333.78;5029580;28;20408;-76
2022/12/09 02:39:20;;;;;;;9.15;6.68;;;;;;;1.58;74.81;99327.63;5041746;28;20404;-75
2022/12/09 02:41:48;;;;;;;11.25;7.38;;;;;;;1.53;74.23;99325.59;5050147;28;20738;-75
2022/12/09 02:44:18;;;;;;;10.50;6.60;;;;;;;1.48;74.60;99316.59;5022516;28;20837;-75
2022/12/09 02:46:44;;;;;;;11.10;7.53;;;;;;;1.48;74.52;99308.59;5042397;28;20466;-75
2022/12/09 02:49:12;;;;;;;14.37;9.17;;;;;;;1.52;74.77;99312.44;5040304;28;20395;-75
2022/12/09 02:51:40;;;;;;;16.90;10.20;;;;;;;1.54;74.69;99308.56;5048740;28;20404;-75
2022/12/09 02:54:10;;;;;;;15.93;10.50;;;;;;;1.57;74.47;99304.63;5023580;28;20445;-75
2022/12/09 02:56:38;;;;;;;16.85;10.20;;;;;;;1.61;74.49;99303.19;5035897;28;20432;-75
2022/12/09 02:59:03;;;;;;;15.67;9.93;;;;;;;1.60;74.70;99301.53;5040585;28;20407;-75
2022/12/09 03:01:48;;;;;;;12.60;9.20;;;;;;;1.63;74.59;99302.94;5038748;28;20406;-75
2022/12/09 03:04:19;;;;;;;17.73;9.35;;;;;;;1.62;74.81;99296.78;5025066;28;20430;-75
2022/12/09 03:07:02;;;;;;;13.90;8.53;;;;;;;1.60;75.00;99298.03;5036478;28;20489;-75
2022/12/09 03:09:32;;;;;;;13.88;8.43;;;;;;;1.56;74.99;99295.78;5035226;28;21109;-75
2022/12/09 03:12:03;;;;;;;15.87;8.93;;;;;;;1.54;74.92;99297.06;5051091;28;20426;-75
2022/12/09 03:14:34;;;;;;;19.08;9.13;;;;;;;1.53;74.98;99288.22;5051216;28;20487;-75
2022/12/09 03:17:29;;;;;;;13.30;7.93;;;;;;;1.54;74.99;99281.03;5051094;28;20407;-75
2022/12/09 03:20:19;;;;;;;15.25;8.65;;;;;;;1.53;74.99;99279.38;5018857;28;20419;-75
2022/12/09 03:22:46;;;;;;;12.23;8.40;;;;;;;1.49;74.78;99276.31;5029397;28;20401;-75
2022/12/09 03:25:22;;;;;;;10.77;7.75;;;;;;;1.46;75.03;99265.25;5045354;28;20435;-75
2022/12/09 03:28:04;;;;;;;12.18;8.00;;;;;;;1.46;74.84;99270.59;5042437;28;20412;-75
2022/12/09 03:30:32;;;;;;;14.00;9.52;;;;;;;1.44;74.98;99267.34;5031406;28;20497;-75
2022/12/09 03:32:57;;;;;;;17.20;9.07;;;;;;;1.46;74.54;99267.94;5034479;28;20396;-75
2022/12/09 03:35:28;;;;;;;15.23;8.77;;;;;;;1.48;74.75;99273.88;5041898;28;20397;-76
2022/12/09 03:37:55;;;;;;;10.90;7.80;;;;;;;1.48;74.65;99282.69;5049753;28;20435;-75
2022/12/09 03:40:25;;;;;;;17.67;7.77;;;;;;;1.49;74.47;99275.50;5039564;28;20568;-75
2022/12/09 03:43:00;;;;;;;10.27;7.38;;;;;;;1.48;74.72;99272.00;5019886;28;20452;-75
2022/12/09 03:45:26;;;;;;;8.30;6.57;;;;;;;1.45;74.64;99276.97;5043232;28;20512;-75
2022/12/09 03:47:53;;;;;;;10.75;6.53;;;;;;;1.43;74.55;99276.38;5043663;28;21139;-75
2022/12/09 03:50:22;;;;;;;9.10;6.40;;;;;;;1.36;75.01;99270.25;5030471;28;20415;-75
2022/12/09 03:53:00;;;;;;;7.50;5.80;;;;;;;1.33;74.89;99270.69;5032340;28;21060;-75
2022/12/09 03:55:35;;;;;;;10.40;6.32;;;;;;;1.32;74.70;99266.34;5054547;28;20440;-75
2022/12/09 03:58:05;;;;;;;8.77;6.65;;;;;;;1.32;74.50;99263.69;5042468;28;20400;-75
2022/12/09 04:00:34;;;;;;;13.43;7.32;;;;;;;1.35;74.48;99261.41;5029823;28;20776;-75
2022/12/09 04:02:59;;;;;;;11.13;6.25;;;;;;;1.39;74.86;99264.47;5022974;28;20790;-75
2022/12/09 04:05:24;;;;;;;10.27;6.33;;;;;;;1.40;74.48;99266.94;5054376;28;20401;-75
2022/12/09 04:07:49;;;;;;;9.33;6.03;;;;;;;1.41;74.40;99262.44;5028646;28;20424;-75
2022/12/09 04:10:15;;;;;;;9.07;5.60;;;;;;;1.41;74.55;99259.75;5030204;28;20416;-75
2022/12/09 04:12:40;;;;;;;9.63;5.80;;;;;;;1.42;74.83;99254.19;5042963;28;20406;-76
2022/12/09 04:15:06;;;;;;;7.20;4.87;;;;;;;1.42;74.50;99259.53;5038996;28;20884;-75
2022/12/09 04:17:31;;;;;;;6.47;4.63;;;;;;;1.45;74.55;99260.94;5053162;28;20394;-75
2022/12/09 04:19:57;;;;;;;6.73;4.37;;;;;;;1.44;74.38;99259.31;5034866;28;20439;-75
2022/12/09 04:22:22;;;;;;;8.02;4.28;;;;;;;1.43;74.55;99250.50;5049537;28;20443;-75
2022/12/09 04:24:47;;;;;;;6.63;4.57;;;;;;;1.44;74.22;99251.31;5035050;28;20768;-75
2022/12/09 04:27:13;;;;;;;6.27;4.57;;;;;;;1.45;74.47;99240.41;5033607;28;20448;-75
2022/12/09 04:29:38;;;;;;;6.13;4.57;;;;;;;1.49;74.36;99244.28;5037963;28;20397;-75
2022/12/09 04:32:04;;;;;;;5.13;4.50;;;;;;;1.50;74.29;99237.94;5045638;28;20381;-75
2022/12/09 04:34:30;;;;;;;6.65;4.20;;;;;;;1.50;74.36;99234.44;5053209;28;20391;-75
2022/12/09 04:36:56;;;;;;;5.15;4.28;;;;;;;1.47;74.40;99230.34;5031415;28;20397;-75
2022/12/09 04:39:21;;;;;;;7.15;4.50;;;;;;;1.49;74.76;99222.09;5047651;28;20407;-75
2022/12/09 04:41:46;;;;;;;9.10;4.67;;;;;;;1.49;74.62;99224.78;5080475;28;20881;-75
2022/12/09 04:44:11;;;;;;;7.37;5.17;;;;;;;1.48;74.24;99210.59;5052302;28;20386;-75
2022/12/09 04:46:37;;;;;;;7.63;4.93;;;;;;;1.46;74.51;99206.53;5048561;28;21049;-75
2022/12/09 04:49:02;;;;;;;9.10;5.53;;;;;;;1.45;74.49;99207.56;5050845;28;20397;-75
2022/12/09 04:51:27;;;;;;;8.97;6.37;;;;;;;1.44;74.56;99197.94;5011296;28;20899;-75
2022/12/09 04:53:53;;;;;;;7.80;5.43;;;;;;;1.36;74.49;99204.34;5051616;28;20403;-75
2022/12/09 04:56:20;;;;;;;10.10;6.20;;;;;;;1.37;74.60;99203.31;5052576;28;20420;-75
2022/12/09 04:58:48;;;;;;;8.27;5.18;;;;;;;1.38;74.71;99194.25;5052085;28;20491;-75
2022/12/09 05:01:17;;;;;;;8.32;5.15;;;;;;;1.36;74.51;99200.84;5027066;28;20445;-75
2022/12/09 05:03:42;;;;;;;6.72;5.07;;;;;;;1.33;74.52;99202.09;5035215;28;20448;-75
2022/12/09 05:06:12;;;;;;;7.07;4.63;;;;;;;1.25;74.26;99194.34;5053090;28;20402;-75
2022/12/09 05:08:38;;;;;;;6.65;5.25;;;;;;;1.23;74.36;99192.94;5046799;28;20397;-75
2022/12/09 05:11:03;;;;;;;6.27;4.80;;;;;;;1.23;74.25;99190.25;5010952;28;20819;-75
2022/12/09 05:13:29;;;;;;;7.83;5.37;;;;;;;1.29;74.47;99197.41;5044966;28;20434;-75
2022/12/09 05:16:00;;;;;;;11.93;6.05;;;;;;;1.36;74.42;99187.50;5027409;28;20492;-75
2022/12/09 05:18:26;;;;;;;7.60;5.82;;;;;;;1.38;74.43;99180.13;5045561;28;20465;-75
2022/12/09 05:20:51;;;;;;;9.05;5.78;;;;;;;1.38;74.44;99183.56;5029668;28;20417;-75
2022/12/09 05:23:16;;;;;;;8.80;6.40;;;;;;;1.39;74.48;99190.56;5019458;28;20409;-74
2022/12/09 05:25:41;;;;;;;9.98;6.38;;;;;;;1.38;74.32;99182.78;5032149;28;20898;-75
2022/12/09 05:28:07;;;;;;;10.13;6.50;;;;;;;1.38;74.44;99190.78;5038060;28;20411;-75
2022/12/09 05:30:32;;;;;;;10.53;7.03;;;;;;;1.34;74.57;99185.06;5027018;28;20490;-74
2022/12/09 05:32:57;;;;;;;10.27;6.87;;;;;;;1.35;74.60;99181.34;5043238;28;20401;-75
2022/12/09 05:35:22;;;;;;;9.67;6.90;;;;;;;1.37;74.60;99176.63;5036426;28;20448;-76
2022/12/09 05:37:48;;;;;;;10.20;6.90;;;;;;;1.39;74.65;99185.22;5014495;28;20414;-75
2022/12/09 05:40:13;;;;;;;14.20;7.63;;;;;;;1.37;74.61;99187.31;5029578;28;20788;-76
2022/12/09 05:42:38;;;;;;;11.23;7.88;;;;;;;1.41;74.56;99179.69;5042034;28;20386;-75
2022/12/09 05:45:04;;;;;;;12.87;7.70;;;;;;;1.39;74.79;99181.72;5032841;28;20910;-76
2022/12/09 05:47:29;;;;;;;11.93;7.77;;;;;;;1.41;74.43;99190.34;5037239;28;20431;-74
2022/12/09 05:49:54;;;;;;;10.90;7.77;;;;;;;1.36;74.79;99184.84;5022586;28;20400;-77
2022/12/09 05:52:20;;;;;;;13.03;8.23;;;;;;;1.35;74.66;99181.34;5023667;28;20407;-76
2022/12/09 05:54:45;;;;;;;13.93;7.88;;;;;;;1.34;74.59;99182.41;5029608;28;20438;-76
2022/12/09 05:57:10;;;;;;;14.07;7.83;;;;;;;1.34;74.53;99173.56;5058676;28;20482;-76
2022/12/09 05:59:36;;;;;;;12.50;8.27;;;;;;;1.37;74.62;99171.28;5033666;28;20773;-76
2022/12/09 06:02:01;;;;;;;12.47;8.80;;;;;;;1.38;74.39;99172.91;5049214;28;20826;-75
2022/12/09 06:04:26;;;;;;;13.80;8.45;;;;;;;1.39;74.21;99171.88;5026597;28;20471;-76
2022/12/09 06:06:52;;;;;;;14.07;8.97;;;;;;;1.40;74.42;99170.03;5039054;28;21042;-75
2022/12/09 06:09:17;;;;;;;12.33;8.07;;;;;;;1.43;74.31;99174.94;5037181;28;20401;-75
2022/12/09 06:11:42;;;;;;;12.00;8.60;;;;;;;1.43;74.60;99166.91;5033676;28;20404;-75
2022/12/09 06:14:09;;;;;;;14.17;9.20;;;;;;;1.42;74.40;99173.28;5015398;28;20892;-74
2022/12/09 06:16:34;;;;;;;14.75;8.90;;;;;;;1.40;74.28;99170.03;5018400;28;20412;-75
2022/12/09 06:19:00;;;;;;;11.88;8.80;;;;;;;1.38;74.26;99172.91;5013072;28;20484;-75
2022/12/09 06:21:25;;;;;;;14.40;9.13;;;;;;;1.41;74.91;99169.00;5025370;28;20419;-74
2022/12/09 06:23:52;;;;;;;14.37;10.53;;;;;;;1.42;74.54;99170.63;5025745;28;20813;-75
2022/12/09 06:26:28;;;;;;;17.70;11.23;;;;;;;1.43;74.29;99170.41;5031294;28;20420;-74
2022/12/09 06:28:54;;;;;;;22.13;12.80;;;;;;;1.45;74.14;99170.19;5025067;28;20411;-75
2022/12/09 06:31:21;;;;;;;25.20;15.10;;;;;;;1.45;74.23;99164.84;5033244;28;20395;-75
2022/12/09 06:33:46;;;;;;;24.88;13.07;;;;;;;1.46;74.00;99163.81;5023982;28;20482;-75
2022/12/09 06:36:12;;;;;;;20.10;12.18;;;;;;;1.48;74.01;99159.88;5023882;28;20494;-75
2022/12/09 06:38:37;;;;;;;17.95;10.95;;;;;;;1.50;74.02;99159.69;5023286;28;20391;-74
2022/12/09 06:41:11;;;;;;;15.52;10.35;;;;;;;1.50;73.74;99160.50;5039077;28;20489;-74
2022/12/09 06:43:37;;;;;;;14.32;9.55;;;;;;;1.51;73.94;99169.34;5015141;28;20776;-74
2022/12/09 06:46:09;;;;;;;12.43;9.05;;;;;;;1.52;74.14;99174.44;5021413;28;20414;-74
2022/12/09 06:48:34;;;;;;;14.60;9.18;;;;;;;1.51;73.69;99170.16;5028816;28;20478;-73
2022/12/09 06:51:02;;;;;;;15.57;9.25;;;;;;;1.50;74.06;99170.34;5020995;28;21478;-74
2022/12/09 06:53:27;;;;;;;13.87;9.50;;;;;;;1.45;74.09;99173.66;5028336;28;21065;-74
2022/12/09 06:55:52;;;;;;;15.53;9.00;;;;;;;1.42;73.88;99168.75;5039284;28;20437;-74
2022/12/09 06:58:17;;;;;;;14.18;8.80;;;;;;;1.42;74.27;99168.75;5025392;28;20397;-74
2022/12/09 07:00:43;;;;;;;14.00;9.30;;;;;;;1.47;73.88;99168.13;5015465;28;20408;-73
2022/12/09 07:03:10;;;;;;;12.93;8.60;;;;;;;1.49;74.01;99169.53;5015955;28;20934;-73
2022/12/09 07:05:35;;;;;;;15.25;9.77;;;;;;;1.52;73.64;99163.75;5045039;28;20393;-74
2022/12/09 07:08:01;;;;;;;15.87;9.23;;;;;;;1.52;73.63;99166.44;5022515;28;20466;-73
2022/12/09 07:10:26;;;;;;;17.73;9.63;;;;;;;1.56;73.83;99164.16;5031678;28;20413;-73
2022/12/09 07:12:51;;;;;;;16.00;9.67;;;;;;;1.55;73.84;99155.31;5012915;28;20405;-73
2022/12/09 07:15:16;;;;;;;14.37;9.30;;;;;;;1.54;73.78;99155.53;5037787;28;20405;-74
2022/12/09 07:17:42;;;;;;;15.40;10.03;;;;;;;1.55;73.41;99147.31;5022918;28;20416;-73
2022/12/09 07:20:08;;;;;;;15.03;9.20;;;;;;;1.60;73.42;99145.84;5042853;28;20425;-73
2022/12/09 07:22:33;;;;;;;15.77;9.85;;;;;;;1.62;73.27;99154.44;5016021;28;20408;-74
2022/12/09 07:24:58;;;;;;;19.13;10.77;;;;;;;1.57;73.39;99155.09;5023521;28;20515;-74
2022/12/09 07:27:24;;;;;;;15.57;9.77;;;;;;;1.53;73.24;99154.72;5024330;28;20793;-73
2022/12/09 07:29:49;;;;;;;16.30;9.80;;;;;;;1.56;73.47;99156.94;5038618;28;20482;-75
2022/12/09 07:32:14;;;;;;;15.40;10.50;;;;;;;1.58;73.09;99153.25;5030257;28;20894;-74
2022/12/09 07:34:40;;;;;;;17.47;9.93;;;;;;;1.56;72.78;99154.28;5050540;28;20385;-73
2022/12/09 07:37:05;;;;;;;16.67;9.60;;;;;;;1.54;73.46;99158.22;5050415;28;20784;-73
2022/12/09 07:39:30;;;;;;;17.43;9.80;;;;;;;1.56;73.09;99156.94;5039800;28;20385;-72
2022/12/09 07:41:56;;;;;;;14.97;9.90;;;;;;;1.61;73.26;99158.16;5054484;28;20440;-75
2022/12/09 07:44:23;;;;;;;17.58;10.10;;;;;;;1.61;72.97;99152.81;5076563;28;20459;-75
2022/12/09 07:46:48;;;;;;;14.45;9.73;;;;;;;1.65;73.06;99162.03;5053509;28;20417;-72
2022/12/09 07:49:13;;;;;;;14.77;9.48;;;;;;;1.68;72.99;99158.91;5043267;28;20424;-75
2022/12/09 07:51:39;;;;;;;17.05;10.57;;;;;;;1.65;73.02;99154.03;5054618;28;20389;-76
2022/12/09 07:54:04;;;;;;;15.30;9.57;;;;;;;1.61;72.94;99153.63;5054580;28;20783;-75
2022/12/09 07:56:30;;;;;;;14.47;10.07;;;;;;;1.62;73.06;99157.09;5053933;28;20386;-75
2022/12/09 07:58:56;;;;;;;19.37;10.03;;;;;;;1.66;73.08;99153.78;5038766;28;20906;-75
2022/12/09 08:01:26;;;;;;;17.88;9.93;;;;;;;1.67;72.82;99154.59;5054379;28;20392;-75
2022/12/09 08:03:53;;;;;;;15.32;9.80;;;;;;;1.73;72.93;99153.72;5048426;28;20446;-75
2022/12/09 08:06:21;;;;;;;18.40;10.52;;;;;;;1.76;72.73;99158.63;5054043;28;20508;-75
2022/12/09 08:08:46;;;;;;;18.05;10.57;;;;;;;1.81;72.57;99159.59;5023313;28;20408;-75
2022/12/09 08:11:15;;;;;;;17.87;10.13;;;;;;;1.85;72.85;99162.66;5053240;28;20374;-75
2022/12/09 08:13:41;;;;;;;16.33;10.25;;;;;;;1.84;72.54;99159.19;5050414;28;20389;-75
2022/12/09 08:16:11;;;;;;;14.60;10.02;;;;;;;1.84;72.61;99159.19;5045276;28;20401;-75
2022/12/09 08:18:36;;;;;;;15.10;9.82;;;;;;;1.90;72.46;99154.81;5023097;28;20441;-74
2022/12/09 08:21:07;;;;;;;16.20;10.00;;;;;;;1.98;72.34;99155.31;5054106;28;20394;-75
2022/12/09 08:23:33;;;;;;;14.32;9.85;;;;;;;1.98;72.01;99151.81;5052731;28;20443;-74
2022/12/09 08:25:58;;;;;;;13.30;9.57;;;;;;;2.02;71.91;99147.69;5053856;28;20389;-74
2022/12/09 08:28:23;;;;;;;15.93;10.98;;;;;;;2.06;72.30;99157.72;5044710;28;20385;-74
2022/12/09 08:30:49;;;;;;;16.60;10.05;;;;;;;2.15;71.95;99147.53;5047097;28;20387;-74
2022/12/09 08:33:15;;;;;;;18.58;10.63;;;;;;;2.24;71.71;99150.75;5037716;28;20931;-74
2022/12/09 08:35:42;;;;;;;17.80;10.48;;;;;;;2.34;71.62;99146.50;5044589;28;20723;-75
2022/12/09 08:38:10;;;;;;;20.60;11.43;;;;;;;2.62;71.12;99151.31;5029539;28;20417;-75
2022/12/09 08:40:36;;;;;;;22.33;11.75;;;;;;;2.73;70.23;99147.88;5041959;28;20408;-75
2022/12/09 08:43:08;;;;;;;19.55;10.57;;;;;;;2.79;70.30;99151.50;5040731;28;20443;-75
2022/12/09 08:45:36;;;;;;;14.77;9.93;;;;;;;2.79;70.04;99141.63;5029888;28;20421;-75
2022/12/09 08:48:01;;;;;;;16.13;10.38;;;;;;;2.85;69.86;99137.22;5032985;28;20445;-73
2022/12/09 08:50:26;;;;;;;17.48;10.18;;;;;;;2.98;70.21;99145.06;5033128;28;20460;-73
2022/12/09 08:52:51;;;;;;;16.30;10.27;;;;;;;3.19;69.57;99141.06;5041225;28;20410;-73
2022/12/09 08:55:17;;;;;;;20.10;10.17;;;;;;;3.39;68.79;99131.63;5046828;28;20803;-74
2022/12/09 08:57:42;;;;;;;17.58;10.05;;;;;;;3.28;69.11;99123.59;5033004;28;20416;-73
2022/12/09 09:00:08;;;;;;;18.27;10.40;;;;;;;3.34;69.35;99139.56;5041997;28;20412;-73
2022/12/09 09:02:33;;;;;;;13.90;9.30;;;;;;;3.38;69.06;99134.56;5037833;28;20910;-73
2022/12/09 09:04:58;;;;;;;13.97;9.60;;;;;;;3.35;69.27;99132.34;5026007;28;20413;-74
2022/12/09 09:07:23;;;;;;;17.43;10.77;;;;;;;3.43;69.15;99138.19;5041336;28;20455;-73
2022/12/09 09:09:49;;;;;;;14.30;9.70;;;;;;;3.47;69.03;99135.84;5031328;28;20413;-74
2022/12/09 09:12:14;;;;;;;18.73;10.70;;;;;;;3.43;68.97;99138.19;5042344;28;20415;-74
2022/12/09 09:14:39;;;;;;;15.80;10.03;;;;;;;3.40;69.24;99132.47;5019511;28;20417;-75
2022/12/09 09:17:05;;;;;;;13.37;9.40;;;;;;;3.40;69.48;99125.25;5018026;28;20444;-74
2022/12/09 09:19:31;;;;;;;14.17;9.17;;;;;;;3.42;68.83;99120.50;5024040;28;20420;-74
2022/12/09 09:21:56;;;;;;;12.85;9.10;;;;;;;3.42;69.34;99114.31;5047770;28;20407;-74
2022/12/09 09:24:23;;;;;;;12.87;9.17;;;;;;;3.44;69.29;99118.38;5032309;28;20920;-74
2022/12/09 09:26:50;;;;;;;12.13;9.15;;;;;;;3.43;69.17;99121.28;5043547;28;20905;-74
2022/12/09 09:29:17;;;;;;;13.68;8.90;;;;;;;3.41;69.39;99115.34;5051629;28;20884;-74
2022/12/09 09:31:46;;;;;;;14.27;9.15;;;;;;;3.43;69.22;99113.25;5041545;28;20490;-74
2022/12/09 09:34:12;;;;;;;15.75;9.82;;;;;;;3.43;69.16;99114.06;5032238;28;20766;-74
2022/12/09 09:36:38;;;;;;;15.10;9.52;;;;;;;3.47;69.25;99109.06;5033203;28;20411;-74
2022/12/09 09:39:04;;;;;;;17.27;9.13;;;;;;;3.47;69.38;99109.88;5044471;28;20424;-74
2022/12/09 09:41:57;;;;;;;13.40;9.07;;;;;;;3.49;69.25;99109.66;5031077;28;20409;-74
2022/12/09 09:44:37;;;;;;;16.03;9.60;;;;;;;3.50;69.00;99116.63;5037459;28;21062;-74
2022/12/09 09:47:13;;;;;;;14.25;9.50;;;;;;;3.49;69.18;99107.78;5045816;28;20908;-74
2022/12/09 09:49:50;;;;;;;15.27;9.38;;;;;;;3.53;69.04;99105.47;5039080;28;20851;-75
2022/12/09 09:52:19;;;;;;;15.35;9.85;;;;;;;3.67;68.91;99101.50;5037314;28;20523;-74
2022/12/09 09:54:44;;;;;;;15.20;9.80;;;;;;;3.81;68.51;99096.72;5028905;28;20413;-74
2022/12/09 09:57:18;;;;;;;13.35;9.75;;;;;;;3.87;68.23;99093.94;5051224;28;20466;-74
2022/12/09 10:00:10;;;;;;;14.50;10.23;;;;;;;3.87;68.02;99103.84;5051001;28;20468;-74
2022/12/09 10:02:54;;;;;;;14.80;10.02;;;;;;;3.87;67.93;99103.84;5033340;28;20428;-74
2022/12/09 10:05:37;;;;;;;13.63;10.32;;;;;;;3.88;68.42;99097.44;5034530;28;20480;-74
2022/12/09 10:08:32;;;;;;;15.02;10.70;;;;;;;3.95;68.17;99096.25;5028374;28;20418;-74
2022/12/09 10:11:00;;;;;;;16.55;10.80;;;;;;;4.03;68.06;99095.06;5025338;28;20418;-74
2022/12/09 10:13:45;;;;;;;18.67;10.97;;;;;;;4.10;67.50;99096.59;5033827;28;20409;-74
2022/12/09 10:16:25;;;;;;;16.65;11.65;;;;;;;4.09;67.74;99088.75;5047126;28;20401;-75
2022/12/09 10:19:06;;;;;;;19.42;12.15;;;;;;;3.92;68.72;99094.03;5028544;28;20808;-74
2022/12/09 10:21:32;;;;;;;18.38;11.77;;;;;;;3.78;68.71;99091.84;5034104;28;20853;-74
2022/12/09 10:24:22;;;;;;;19.07;12.83;;;;;;;3.66;69.12;99089.16;5018040;28;20568;-74
2022/12/09 10:26:57;;;;;;;22.55;12.68;;;;;;;3.62;69.36;99085.34;5018002;28;20437;-74
2022/12/09 10:29:43;;;;;;;19.88;12.95;;;;;;;3.70;69.09;99086.81;5035469;28;20749;-75
2022/12/09 10:32:15;;;;;;;18.27;12.82;;;;;;;3.73;68.61;99084.50;5043676;28;20427;-75
2022/12/09 10:34:40;;;;;;;24.33;13.23;;;;;;;3.83;68.69;99081.22;5032902;28;20413;-74
2022/12/09 10:37:18;;;;;;;23.57;12.63;;;;;;;3.98;68.61;99085.06;5031579;28;20413;-74
2022/12/09 10:39:45;;;;;;;20.92;12.85;;;;;;;3.98;68.72;99077.03;5039792;28;20409;-74
2022/12/09 10:45:06;;;;;;;24.85;12.55;;;;;;;4.03;68.33;99065.59;5025748;28;20490;-75
2022/12/09 10:47:31;;;;;;;25.85;12.80;;;;;;;4.07;68.55;99070.25;5028495;28;20415;-75
2022/12/09 10:49:58;;;;;;;20.93;13.33;;;;;;;4.14;68.61;99067.44;5021919;28;20444;-75
2022/12/09 10:52:28;;;;;;;24.80;14.97;;;;;;;4.27;68.39;99053.75;5032162;28;20541;-75
2022/12/09 10:54:53;;;;;;;19.75;12.73;;;;;;;4.36;67.98;99046.97;5024146;28;20407;-75
2022/12/09 10:57:27;;;;;;;18.40;12.50;;;;;;;4.44;67.72;99051.97;5037373;28;20411;-75
2022/12/09 11:00:00;;;;;;;20.48;12.63;;;;;;;4.49;67.46;99048.53;5035605;28;20397;-75
2022/12/09 11:02:27;;;;;;;18.85;12.55;;;;;;;4.48;67.43;99049.63;5035693;28;20424;-74
2022/12/09 11:04:52;;;;;;;22.48;13.15;;;;;;;4.48;67.42;99049.63;5026619;28;20766;-75
2022/12/09 11:07:21;;;;;;;18.40;12.23;;;;;;;4.45;67.22;99045.53;5017544;28;20425;-75
2022/12/09 11:10:03;;;;;;;21.42;13.18;;;;;;;4.38;67.20;99052.88;5018461;28;20448;-74
2022/12/09 11:12:32;;;;;;;20.98;13.15;;;;;;;4.35;67.69;99052.53;5023612;28;20417;-75
2022/12/09 11:15:01;;;;;;;20.42;13.52;;;;;;;4.42;67.07;99043.31;5025846;28;20410;-75
2022/12/09 11:17:30;;;;;;;21.20;13.50;;;;;;;4.52;67.14;99043.50;5042546;28;20827;-75
2022/12/09 11:20:04;;;;;;;23.23;13.15;;;;;;;4.60;66.75;99042.31;5038507;28;20390;-75
2022/12/09 11:22:37;;;;;;;19.77;13.38;;;;;;;4.55;67.12;99045.72;5036186;28;20445;-75
2022/12/09 11:25:12;;;;;;;20.23;13.27;;;;;;;4.50;67.04;99037.56;5046901;28;20401;-74
2022/12/09 11:27:47;;;;;;;21.52;13.40;;;;;;;4.64;66.73;99017.44;5035697;28;20421;-76
2022/12/09 11:30:25;;;;;;;24.70;13.27;;;;;;;4.72;66.36;99026.97;5035631;28;20457;-75
2022/12/09 11:33:11;;;;;;;24.30;13.43;;;;;;;4.72;66.77;99024.28;5028170;28;20439;-76
2022/12/09 11:35:42;;;;;;;19.38;12.75;;;;;;;4.74;66.10;99016.81;5031017;28;20497;-74
2022/12/09 11:38:42;;;;;;;16.30;12.10;;;;;;;4.71;65.78;99023.47;5031759;28;20510;-76
2022/12/09 11:41:07;;;;;;;21.90;11.98;;;;;;;4.61;65.32;99015.22;5019885;28;20393;-76
2022/12/09 11:43:47;;;;;;;18.47;11.50;;;;;;;4.65;65.42;99020.94;5027808;28;20412;-76